Emerald Isle, NC (28594)

11:08 PM EST on January 23, 2017 (GMT -0500)
Oceanfront | | Change Station
Active Advisory: Small Craft Advisory

Elev 7 ft 34.67 °N, 76.98 °W | Updated 6 seconds ago

Overcast
Overcast
52.3 °F
Feels Like 52.3 °F
N
10.0
Wind Variable Wind from WNW

Today
High -- | Low -- °F
--% Chance of Precip.
Yesterday
High -- | Low -- °F
Precip. -- in
Pressure 29.39 in
Visibility 10.0 miles
Clouds Mostly Cloudy 1700 ft
Overcast 2400 ft
Dew Point 51 °F
Humidity 95%
Rainfall 0.69 in
Snow Depth Not available.
7:11 AM 5:28 PM
Waning Crescent, 14% visible
METAR KNJM 240357Z AUTO VRB05KT 10SM BKN017 OVC024 21/11 A2937 RMK AO2 SLP951 T02060106 $
Pressure 29.39 in
Visibility 10.0 miles
Clouds Mostly Cloudy 1700 ft
Overcast 2400 ft
Dew Point 51 °F
Humidity 95%
Rainfall 0.69 in
Snow Depth Not available.
7:11 AM 5:28 PM
Waning Crescent, 14% visible
METAR KNJM 240357Z AUTO VRB05KT 10SM BKN017 OVC024 21/11 A2937 RMK AO2 SLP951 T02060106 $

Get Your Daily Forecast Email!

Thanks for signing up!

Be on the lookout for a verification email in your inbox.

You'll start receiving the daily forecast at 8 AM.

×

10-Day Weather Forecast

Almanac

Astronomy

Jan. 23, 2017 Rise Set
Actual Time
Civil Twilight
Nautical Twilight
Astronomical Twilight
Moon
Length of Visible Light
Length of Day
Tomorrow will be .
, % of the Moon is Illuminated

Today's Extremes

State Highs State Lows

Community

WunderPhotos

Upload Photos

1,962,540 photos uploaded!

WunderBlog® & News

Nearby

Air Quality

  Air Quality AQ Index Pollutant
Not available.

Snow Depth

Station Depth Elevation

Earthquake Activity

City Distance Mag. Time & Date
Minimum magnitude displayed is 2.5.

Coastal Water Temperatures

Place Temperature

Stations

Nearby Weather Stations

Station Location Temp. Windchill Dew Point Humidity Wind Precip. Elev Updated Type
                   

Watches & Warnings

Small Craft Advisory
Issued: 2:15 PM EST Jan. 23, 2017 – National Weather Service

... Small Craft Advisory remains in effect until midnight EST
Tuesday night...

* winds... northwest 15 to 25 kt with gusts up to 30 kt.

* Seas... 4 to 7 feet.

Precautionary/preparedness actions...

A Small Craft Advisory means that wind speeds of 25 to 33 knots
and/or seas of 6 feet or greater are expected to produce
hazardous wave conditions to small craft. Inexperienced
mariners... especially those operating smaller vessels should
avoid navigating in these conditions.